createdAt,value
2023-03-27T00:01:17.094Z,96865.41
2023-03-27T00:03:44.910Z,96868.66
2023-03-27T00:06:17.232Z,96862.38
2023-03-27T00:09:06.355Z,96861.97
2023-03-27T00:11:47.050Z,96815.31
2023-03-27T00:14:30.823Z,96866.28
2023-03-27T00:17:19.238Z,96864.84
2023-03-27T00:20:14.048Z,96868.97
2023-03-27T00:23:03.272Z,96860.47
2023-03-27T00:25:31.033Z,96861.72
2023-03-27T00:28:01.972Z,96858.66
2023-03-27T00:30:31.240Z,96859.03
2023-03-27T00:32:58.857Z,96856.16
2023-03-27T00:35:28.948Z,96857.78
2023-03-27T00:37:57.532Z,96852.41
2023-03-27T00:40:24.466Z,96856.91
2023-03-27T00:42:52.369Z,96856.91
2023-03-27T00:45:26.833Z,96852.34
2023-03-27T00:47:58.595Z,96852.41
2023-03-27T00:50:35.051Z,96847.44
2023-03-27T00:53:09.323Z,96852.13
2023-03-27T00:55:43.880Z,96845.28
2023-03-27T00:58:16.939Z,96845.06
2023-03-27T01:00:44.090Z,96832.88
2023-03-27T01:03:11.973Z,96840.50
2023-03-27T01:05:39.091Z,96843.22
2023-03-27T01:08:07.702Z,96836.19
2023-03-27T01:11:08.069Z,96829.00
2023-03-27T01:14:28.030Z,96821.53
2023-03-27T01:17:33.494Z,96814.31
2023-03-27T01:20:26.998Z,96819.28
2023-03-27T01:23:59.661Z,96816.88
2023-03-27T01:27:01.958Z,96820.91
2023-03-27T01:29:48.781Z,96809.94
2023-03-27T01:32:37.426Z,96806.28
2023-03-27T01:35:18.776Z,96806.44
2023-03-27T01:38:16.160Z,96795.81
2023-03-27T01:41:02.597Z,96791.44
2023-03-27T01:43:41.969Z,96786.47
2023-03-27T01:46:27.246Z,96792.69
2023-03-27T01:49:07.546Z,96794.63
2023-03-27T01:51:46.580Z,96786.22
2023-03-27T01:54:33.226Z,96790.94
2023-03-27T01:57:16.263Z,96765.63
2023-03-27T01:59:48.712Z,96783.22
2023-03-27T02:02:24.129Z,96775.81
2023-03-27T02:05:01.680Z,96768.41
2023-03-27T02:07:38.979Z,96760.19
2023-03-27T02:10:11.592Z,96755.69
2023-03-27T02:12:43.710Z,96761.31
2023-03-27T02:15:22.534Z,96757.13
2023-03-27T02:18:06.429Z,96747.41
2023-03-27T02:20:34.915Z,96750.22
2023-03-27T02:23:02.328Z,96745.81
2023-03-27T02:25:34.452Z,96742.69
2023-03-27T02:28:29.550Z,96747.41
2023-03-27T02:31:34.150Z,96749.72
2023-03-27T02:34:08.720Z,96758.38
2023-03-27T02:36:46.114Z,96751.97
2023-03-27T02:39:38.907Z,96759.22
2023-03-27T02:42:33.147Z,96761.44
2023-03-27T02:45:20.784Z,96762.72
2023-03-27T02:48:14.623Z,96763.91
2023-03-27T02:50:49.770Z,96763.28
2023-03-27T02:53:22.126Z,96761.06
2023-03-27T02:55:57.543Z,96770.16
2023-03-27T02:58:43.405Z,96768.59
2023-03-27T03:01:13.928Z,96775.66
2023-03-27T03:03:53.803Z,96786.06
2023-03-27T03:06:23.020Z,96780.50
2023-03-27T03:08:50.532Z,96781.34
2023-03-27T03:11:17.526Z,96786.78
2023-03-27T03:13:44.459Z,96779.75
2023-03-27T03:16:11.620Z,96786.44
2023-03-27T03:18:38.576Z,96782.97
2023-03-27T03:21:05.974Z,96788.09
2023-03-27T03:23:33.289Z,96784.50
2023-03-27T03:26:00.154Z,96789.47
2023-03-27T03:28:27.168Z,96783.03
2023-03-27T03:30:54.480Z,96782.16
2023-03-27T03:33:21.951Z,96787.16
2023-03-27T03:35:52.232Z,96784.91
2023-03-27T03:38:25.122Z,96785.13
2023-03-27T03:40:54.081Z,96783.03
2023-03-27T03:43:22.616Z,96788.41
2023-03-27T03:45:50.633Z,96785.06
2023-03-27T03:48:18.012Z,96786.53
2023-03-27T03:50:46.364Z,96789.22
2023-03-27T03:53:14.926Z,96788.41
2023-03-27T03:55:42.096Z,96783.66
2023-03-27T03:58:09.538Z,96779.31
2023-03-27T04:00:40.663Z,96781.00
2023-03-27T04:03:10.169Z,96790.88
2023-03-27T04:05:38.571Z,96791.50
2023-03-27T04:08:09.394Z,96788.75
2023-03-27T04:10:39.283Z,96790.75
2023-03-27T04:13:06.738Z,96791.59
2023-03-27T04:15:33.863Z,96789.56
2023-03-27T04:18:01.301Z,96779.56
2023-03-27T04:20:28.752Z,96789.19
2023-03-27T04:22:56.153Z,96790.13
2023-03-27T04:25:24.718Z,96782.88
2023-03-27T04:27:52.248Z,96775.91
2023-03-27T04:30:23.406Z,96781.50
2023-03-27T04:32:54.076Z,96782.19
2023-03-27T04:35:21.617Z,96786.56
2023-03-27T04:37:49.193Z,96775.63
2023-03-27T04:40:20.995Z,96776.25
2023-03-27T04:42:50.518Z,96774.22
2023-03-27T04:45:20.664Z,96772.13
2023-03-27T04:47:49.265Z,96777.69
2023-03-27T04:50:16.857Z,96778.13
2023-03-27T04:52:44.243Z,96786.84
2023-03-27T04:55:12.445Z,96780.81
2023-03-27T04:57:39.960Z,96783.88
2023-03-27T05:00:19.341Z,96783.50
2023-03-27T05:02:47.922Z,96787.38
2023-03-27T05:06:14.907Z,96788.03
2023-03-27T05:08:41.812Z,96796.91
2023-03-27T05:11:08.977Z,96789.13
2023-03-27T05:13:35.942Z,96789.50
2023-03-27T05:16:03.252Z,96783.50
2023-03-27T05:18:30.993Z,96789.47
2023-03-27T05:20:59.214Z,96787.13
2023-03-27T05:23:27.104Z,96787.34
2023-03-27T05:25:59.685Z,96789.41
2023-03-27T05:28:28.314Z,96780.72
2023-03-27T05:30:57.278Z,96788.56
2023-03-27T05:33:24.413Z,96788.56
2023-03-27T05:35:52.710Z,96790.59
2023-03-27T05:38:20.086Z,96798.41
2023-03-27T05:40:47.015Z,96793.44
2023-03-27T05:43:13.871Z,96794.28
2023-03-27T05:45:41.045Z,96787.19
2023-03-27T05:48:08.495Z,96789.28
2023-03-27T05:50:36.185Z,96789.28
2023-03-27T05:53:06.805Z,96796.03
2023-03-27T05:55:34.219Z,96797.50
2023-03-27T05:58:01.079Z,96806.13
2023-03-27T06:00:31.920Z,96798.44
2023-03-27T06:03:01.491Z,96814.53
2023-03-27T06:05:30.166Z,96817.69
2023-03-27T06:07:59.237Z,96810.66
2023-03-27T06:10:30.471Z,96808.63
2023-03-27T06:13:07.090Z,96814.22
2023-03-27T06:15:34.273Z,96830.53
2023-03-27T06:18:01.826Z,96831.78
2023-03-27T06:20:29.190Z,96838.59
2023-03-27T06:22:59.821Z,96830.69
2023-03-27T06:25:28.279Z,96838.59
2023-03-27T06:27:55.262Z,96838.81
2023-03-27T06:30:24.999Z,96847.03
2023-03-27T06:32:57.923Z,96849.16
2023-03-27T06:35:30.101Z,96857.41
2023-03-27T06:37:59.261Z,96861.13
2023-03-27T06:40:28.327Z,96869.34
2023-03-27T06:42:56.745Z,96877.22
2023-03-27T06:45:26.354Z,96874.81
2023-03-27T06:48:12.111Z,96879.16
2023-03-27T06:50:43.478Z,96879.59
2023-03-27T06:53:23.496Z,96872.81
2023-03-27T06:55:54.453Z,96882.72
2023-03-27T06:58:22.143Z,96877.97
2023-03-27T07:00:50.560Z,96868.69
2023-03-27T07:03:19.278Z,96886.25
2023-03-27T07:05:46.300Z,96891.38
2023-03-27T07:08:23.413Z,96900.88
2023-03-27T07:13:24.898Z,96894.09
2023-03-27T07:15:51.919Z,96892.25
2023-03-27T07:18:18.969Z,96889.25
2023-03-27T07:20:47.574Z,96896.41
2023-03-27T07:23:14.441Z,96897.84
2023-03-27T07:25:41.348Z,96899.34
2023-03-27T07:28:12.290Z,96883.47
2023-03-27T07:30:39.995Z,96909.88
2023-03-27T07:33:09.657Z,96909.06
2023-03-27T07:35:47.551Z,96922.00
2023-03-27T07:39:04.164Z,96928.41
2023-03-27T07:41:31.059Z,96927.75
2023-03-27T07:43:59.352Z,96924.44
2023-03-27T07:46:28.278Z,96921.09
2023-03-27T07:48:56.876Z,96930.41
2023-03-27T07:51:24.604Z,96932.03
2023-03-27T07:53:56.036Z,96931.00
2023-03-27T07:56:23.716Z,96937.84
2023-03-27T07:58:51.775Z,96926.72
2023-03-27T08:01:18.699Z,96930.81
2023-03-27T08:03:47.558Z,96939.22
2023-03-27T08:06:14.592Z,96942.72
2023-03-27T08:08:41.652Z,96936.75
2023-03-27T08:11:16.371Z,96943.84
2023-03-27T08:13:54.761Z,96947.31
2023-03-27T08:16:21.887Z,96954.50
2023-03-27T08:18:49.919Z,96948.69
2023-03-27T08:21:17.165Z,96956.19
2023-03-27T08:23:44.072Z,96955.00
2023-03-27T08:26:10.973Z,96957.09
2023-03-27T08:28:38.419Z,96958.97
2023-03-27T08:31:11.808Z,96959.91
2023-03-27T08:33:39.932Z,96944.72
2023-03-27T08:36:10.306Z,96969.88
2023-03-27T08:38:39.669Z,96976.50
2023-03-27T08:41:07.994Z,96974.03
2023-03-27T08:43:41.771Z,96982.31
2023-03-27T08:46:35.768Z,96996.72
2023-03-27T08:49:22.889Z,96991.16
2023-03-27T08:51:57.096Z,96989.69
2023-03-27T08:54:28.641Z,97000.03
2023-03-27T08:56:55.861Z,97000.44
2023-03-27T08:59:26.805Z,97010.75
2023-03-27T09:02:24.085Z,97027.44
2023-03-27T09:04:59.646Z,97023.94
2023-03-27T09:07:38.133Z,97030.13
2023-03-27T09:10:29.455Z,97042.94
2023-03-27T09:13:21.944Z,97042.06
2023-03-27T09:16:33.925Z,97044.34
2023-03-27T09:19:20.625Z,97049.66
2023-03-27T09:21:55.267Z,97049.56
2023-03-27T09:24:38.002Z,97051.13
2023-03-27T09:27:25.188Z,97065.25
2023-03-27T09:30:05.595Z,97029.06
2023-03-27T09:32:34.137Z,97075.91
2023-03-27T09:35:01.319Z,97087.75
2023-03-27T09:37:28.610Z,97082.19
2023-03-27T09:39:59.019Z,97088.13
2023-03-27T09:42:32.166Z,97088.13
2023-03-27T09:45:04.677Z,97094.28
2023-03-27T09:47:38.606Z,97095.06
2023-03-27T09:50:29.764Z,97115.41
2023-03-27T09:53:23.103Z,97109.06
2023-03-27T09:55:57.201Z,97122.78
2023-03-27T09:58:33.089Z,97122.78
2023-03-27T10:01:20.036Z,97133.09
2023-03-27T10:03:52.780Z,97144.34
2023-03-27T10:06:28.196Z,97142.28
2023-03-27T10:08:56.854Z,97149.72
2023-03-27T10:11:27.929Z,97156.44
2023-03-27T10:13:55.589Z,97161.84
2023-03-27T10:16:23.663Z,97170.84
2023-03-27T10:18:55.858Z,97173.38
2023-03-27T10:21:35.811Z,97177.66
2023-03-27T10:24:19.028Z,97178.16
2023-03-27T10:26:48.917Z,97182.13
2023-03-27T10:29:26.224Z,97195.28
2023-03-27T10:31:58.971Z,97199.13
2023-03-27T10:34:50.876Z,97184.34
2023-03-27T10:37:23.289Z,97209.66
2023-03-27T10:39:53.041Z,97219.94
2023-03-27T10:42:20.210Z,97217.09
2023-03-27T10:44:49.395Z,97217.84
2023-03-27T10:47:21.291Z,97224.63
2023-03-27T10:50:16.566Z,97231.16
2023-03-27T10:53:03.752Z,97229.13
2023-03-27T10:55:44.828Z,97239.88
2023-03-27T10:58:25.920Z,97240.78
2023-03-27T11:01:21.204Z,97239.25
2023-03-27T11:04:03.785Z,97243.31
2023-03-27T11:06:41.985Z,97259.41
2023-03-27T11:09:25.626Z,97253.41
2023-03-27T11:11:59.209Z,97263.38
2023-03-27T11:14:44.978Z,97260.31
2023-03-27T11:17:18.554Z,97265.13
2023-03-27T11:19:45.378Z,97272.94
2023-03-27T11:22:20.039Z,97286.19
2023-03-27T11:25:12.310Z,97275.06
2023-03-27T11:27:45.967Z,97290.84
2023-03-27T11:30:46.623Z,97285.63
2023-03-27T11:33:54.764Z,97293.78
2023-03-27T11:36:45.019Z,97300.31
2023-03-27T11:39:30.821Z,97303.16
2023-03-27T11:42:00.669Z,97321.00
2023-03-27T11:44:30.616Z,97329.66
2023-03-27T11:47:21.444Z,97334.69
2023-03-27T11:50:13.291Z,97330.19
2023-03-27T11:53:10.883Z,97342.75
2023-03-27T11:55:46.631Z,97355.09
2023-03-27T11:58:28.969Z,97350.94
2023-03-27T12:00:59.090Z,97336.78
2023-03-27T12:03:55.920Z,97343.31
2023-03-27T12:06:39.866Z,97353.06
2023-03-27T12:09:24.961Z,97349.94
2023-03-27T12:12:04.861Z,97361.00
2023-03-27T12:15:07.051Z,97359.34
2023-03-27T12:18:02.155Z,97352.00
2023-03-27T12:20:52.843Z,97363.31
2023-03-27T12:23:37.033Z,97360.19
2023-03-27T12:26:39.585Z,97372.63
2023-03-27T12:29:48.667Z,97379.84
2023-03-27T12:32:47.401Z,97393.25
2023-03-27T12:35:22.311Z,97400.22
2023-03-27T12:38:05.547Z,97410.88
2023-03-27T12:40:37.938Z,97418.56
2023-03-27T12:43:07.739Z,97435.19
2023-03-27T12:45:38.921Z,97442.03
2023-03-27T12:48:19.784Z,97452.19
2023-03-27T12:50:52.935Z,97458.19
2023-03-27T12:53:40.239Z,97464.13
2023-03-27T12:56:10.834Z,97462.94
2023-03-27T12:58:38.568Z,97456.66
2023-03-27T13:01:11.182Z,97470.63
2023-03-27T13:03:53.086Z,97468.78
2023-03-27T13:06:28.678Z,97472.59
2023-03-27T13:09:14.179Z,97462.28
2023-03-27T13:11:58.265Z,97476.81
2023-03-27T13:14:43.740Z,97480.00
2023-03-27T13:17:35.716Z,97489.38
2023-03-27T13:20:22.326Z,97492.97
2023-03-27T13:23:10.308Z,97499.16
2023-03-27T13:25:59.404Z,97491.88
2023-03-27T13:28:34.610Z,97496.75
2023-03-27T13:31:04.612Z,97502.84
2023-03-27T13:33:31.627Z,97530.13
2023-03-27T13:35:58.721Z,97523.25
2023-03-27T13:38:53.679Z,97530.38
2023-03-27T13:41:45.472Z,97535.91
2023-03-27T13:44:19.851Z,97534.88
2023-03-27T13:46:54.612Z,97537.03
2023-03-27T13:49:35.675Z,97543.13
2023-03-27T13:52:17.639Z,97536.78
2023-03-27T13:55:06.140Z,97559.19
2023-03-27T13:57:58.667Z,97569.53
2023-03-27T14:00:57.022Z,97570.44
2023-03-27T14:03:36.167Z,97584.91
2023-03-27T14:06:28.329Z,97583.66
2023-03-27T14:09:13.480Z,97595.63
2023-03-27T14:12:01.426Z,97612.63
2023-03-27T14:15:02.257Z,97621.59
2023-03-27T14:17:29.177Z,97616.31
2023-03-27T14:20:08.606Z,97627.00
2023-03-27T14:22:49.187Z,97617.81
2023-03-27T14:25:20.453Z,97631.66
2023-03-27T14:27:54.801Z,97626.66
2023-03-27T14:30:28.115Z,97635.81
2023-03-27T14:32:57.785Z,97640.47
2023-03-27T14:35:37.646Z,97639.66
2023-03-27T14:38:14.919Z,97649.28
2023-03-27T14:40:47.733Z,97658.78
2023-03-27T14:43:18.219Z,97661.28
2023-03-27T14:45:46.545Z,97666.63
2023-03-27T14:48:26.102Z,97686.28
2023-03-27T14:50:56.534Z,97686.97
2023-03-27T14:53:31.561Z,97683.97
2023-03-27T14:56:11.863Z,97688.66
2023-03-27T14:58:44.400Z,97702.31
2023-03-27T15:01:17.459Z,97697.34
2023-03-27T15:03:46.598Z,97709.66
2023-03-27T15:06:26.063Z,97717.31
2023-03-27T15:09:05.538Z,97730.66
2023-03-27T15:11:39.220Z,97726.97
2023-03-27T15:14:14.153Z,97727.16
2023-03-27T15:16:42.260Z,97737.50
2023-03-27T15:19:28.361Z,97736.34
2023-03-27T15:21:58.504Z,97741.50
2023-03-27T15:24:43.652Z,97746.66
2023-03-27T15:27:20.453Z,97736.38
2023-03-27T15:29:58.970Z,97756.00
2023-03-27T15:32:42.948Z,97766.19
2023-03-27T15:35:16.020Z,97760.50
2023-03-27T15:37:43.112Z,97760.66
2023-03-27T15:40:26.826Z,97773.34
2023-03-27T15:43:02.524Z,97763.66
2023-03-27T15:45:41.688Z,97779.97
2023-03-27T15:48:19.192Z,97792.31
2023-03-27T15:51:00.797Z,97775.47
2023-03-27T15:53:37.212Z,97773.63
2023-03-27T15:56:08.043Z,97769.31
2023-03-27T15:58:46.332Z,97790.47
2023-03-27T16:01:20.246Z,97792.31
2023-03-27T16:03:48.587Z,97806.47
2023-03-27T16:06:25.427Z,97793.50
2023-03-27T16:08:53.223Z,97809.84
2023-03-27T16:11:45.976Z,97803.00
2023-03-27T16:14:21.542Z,97798.50
2023-03-27T16:16:49.968Z,97805.47
2023-03-27T16:19:16.871Z,97810.81
2023-03-27T16:21:57.564Z,97810.66
2023-03-27T16:24:24.484Z,97806.97
2023-03-27T16:26:53.186Z,97808.31
2023-03-27T16:29:21.321Z,97825.34
2023-03-27T16:31:48.271Z,97822.84
2023-03-27T16:34:23.051Z,97833.50
2023-03-27T16:36:50.721Z,97838.16
2023-03-27T16:39:17.583Z,97829.00
2023-03-27T16:41:44.502Z,97848.31
2023-03-27T16:44:11.431Z,97846.69
2023-03-27T16:46:38.399Z,97858.66
2023-03-27T16:49:05.271Z,97844.00
2023-03-27T16:51:32.176Z,97862.19
2023-03-27T16:53:59.516Z,97856.00
2023-03-27T16:56:26.463Z,97869.69
2023-03-27T16:58:53.357Z,97874.19
2023-03-27T17:01:20.655Z,97878.66
2023-03-27T17:03:47.585Z,97825.97
2023-03-27T17:06:15.427Z,97889.97
2023-03-27T17:08:42.290Z,97889.00
2023-03-27T17:11:12.023Z,97894.13
2023-03-27T17:13:42.877Z,97902.31
2023-03-27T17:16:10.585Z,97908.78
2023-03-27T17:18:37.597Z,97904.47
2023-03-27T17:21:05.197Z,97909.00
2023-03-27T17:23:32.645Z,97915.31
2023-03-27T17:26:03.585Z,97898.94
2023-03-27T17:28:31.702Z,97914.63
2023-03-27T17:31:04.543Z,97926.81
2023-03-27T17:33:31.962Z,97917.97
2023-03-27T17:35:59.133Z,97937.25
2023-03-27T17:38:26.339Z,97932.91
2023-03-27T17:40:53.207Z,97934.91
2023-03-27T17:43:20.152Z,97946.06
2023-03-27T17:45:48.180Z,97925.22
2023-03-27T17:48:15.686Z,97956.88
2023-03-27T17:50:42.754Z,97951.19
2023-03-27T17:53:09.627Z,97954.03
2023-03-27T17:55:38.013Z,97961.19
2023-03-27T17:58:09.963Z,97958.28
2023-03-27T18:00:39.485Z,97971.13
2023-03-27T18:03:07.562Z,97973.94
2023-03-27T18:05:39.164Z,97979.09
2023-03-27T18:08:07.791Z,97978.44
2023-03-27T18:10:35.540Z,97985.25
2023-03-27T18:13:03.035Z,97985.00
2023-03-27T18:15:30.722Z,97997.84
2023-03-27T18:17:57.672Z,97993.84
2023-03-27T18:20:25.183Z,97995.81
2023-03-27T18:22:52.126Z,98006.25
2023-03-27T18:25:19.051Z,98003.59
2023-03-27T18:27:46.166Z,98015.22
2023-03-27T18:30:15.213Z,98014.03
2023-03-27T18:32:43.939Z,98012.53
2023-03-27T18:35:14.334Z,98019.81
2023-03-27T18:37:42.614Z,98024.00
2023-03-27T18:40:12.278Z,98020.81
2023-03-27T18:42:41.180Z,97998.41
2023-03-27T18:45:09.634Z,98033.06
2023-03-27T18:47:37.399Z,98033.41
2023-03-27T18:50:05.895Z,98027.75
2023-03-27T18:52:33.203Z,98041.84
2023-03-27T18:55:00.134Z,98034.16
2023-03-27T18:57:27.810Z,98031.28
2023-03-27T18:59:58.709Z,98037.06
2023-03-27T19:02:25.751Z,98039.56
2023-03-27T19:04:53.747Z,98047.19
2023-03-27T19:07:20.928Z,98061.31
2023-03-27T19:09:47.891Z,98052.34
2023-03-27T19:12:14.811Z,98055.47
2023-03-27T19:14:42.002Z,98064.72
2023-03-27T19:17:09.072Z,98064.06
2023-03-27T19:19:36.458Z,98055.69
2023-03-27T19:22:06.116Z,98056.16
2023-03-27T19:24:33.001Z,98062.31
2023-03-27T19:26:59.907Z,98062.47
2023-03-27T19:29:26.860Z,98065.25
2023-03-27T19:31:54.625Z,98063.50
2023-03-27T19:34:32.628Z,98066.16
2023-03-27T19:37:03.408Z,98071.66
2023-03-27T19:39:30.340Z,98069.13
2023-03-27T19:41:57.311Z,98074.47
2023-03-27T19:44:24.221Z,98082.75
2023-03-27T19:46:51.422Z,98068.09
2023-03-27T19:49:18.499Z,98072.56
2023-03-27T19:51:45.569Z,98074.00
2023-03-27T19:54:12.431Z,98071.63
2023-03-27T19:56:39.619Z,98069.78
2023-03-27T19:59:07.685Z,98072.63
2023-03-27T20:01:37.807Z,98075.72
2023-03-27T20:04:05.007Z,98080.59
2023-03-27T20:06:31.958Z,98089.00
2023-03-27T20:09:00.938Z,98078.53
2023-03-27T20:11:28.649Z,98082.78
2023-03-27T20:13:57.192Z,98084.72
2023-03-27T20:16:27.547Z,98084.19
2023-03-27T20:19:03.793Z,98081.41
2023-03-27T20:21:33.996Z,98075.88
2023-03-27T20:24:00.984Z,98087.28
2023-03-27T20:26:30.138Z,98083.69
2023-03-27T20:28:57.124Z,98095.63
2023-03-27T20:31:24.111Z,98078.97
2023-03-27T20:33:53.361Z,98088.75
2023-03-27T20:36:23.272Z,98091.41
2023-03-27T20:38:52.955Z,98074.44
2023-03-27T20:41:20.551Z,98092.00
2023-03-27T20:43:49.085Z,98086.31
2023-03-27T20:46:16.000Z,98091.88
2023-03-27T20:48:53.641Z,98096.38
2023-03-27T20:51:24.976Z,98099.75
2023-03-27T20:53:56.180Z,98098.91
2023-03-27T20:56:24.351Z,98092.38
2023-03-27T20:58:51.898Z,98087.50
2023-03-27T21:01:28.096Z,98093.78
2023-03-27T21:03:58.666Z,98104.53
2023-03-27T21:06:26.066Z,98089.59
2023-03-27T21:08:53.016Z,98088.91
2023-03-27T21:11:19.969Z,98093.69
2023-03-27T21:13:46.841Z,98094.34
2023-03-27T21:16:14.070Z,98091.03
2023-03-27T21:18:41.051Z,98096.75
2023-03-27T21:21:08.356Z,98093.81
2023-03-27T21:23:35.878Z,98098.41
2023-03-27T21:26:02.838Z,98080.69
2023-03-27T21:28:29.725Z,98104.72
2023-03-27T21:30:56.651Z,98096.19
2023-03-27T21:33:23.542Z,98103.19
2023-03-27T21:35:50.741Z,98103.91
2023-03-27T21:38:18.807Z,98108.50
2023-03-27T21:40:48.507Z,98105.44
2023-03-27T21:43:15.921Z,98106.28
2023-03-27T21:45:42.974Z,98104.06
2023-03-27T21:48:10.893Z,98105.31
2023-03-27T21:50:38.136Z,98103.81
2023-03-27T21:53:05.482Z,98110.06
2023-03-27T21:55:32.684Z,98104.63
2023-03-27T21:57:59.544Z,98081.75
2023-03-27T22:00:26.880Z,98107.00
2023-03-27T22:02:53.834Z,98100.19
2023-03-27T22:05:20.934Z,98095.84
2023-03-27T22:07:47.923Z,98098.50
2023-03-27T22:10:16.026Z,98104.66
2023-03-27T22:12:43.046Z,98104.22
2023-03-27T22:15:10.918Z,98115.25
2023-03-27T22:17:38.550Z,98105.63
2023-03-27T22:20:06.536Z,98104.94
2023-03-27T22:22:36.578Z,98107.44
2023-03-27T22:25:04.312Z,98096.81
2023-03-27T22:27:31.506Z,98109.41
2023-03-27T22:29:58.461Z,98113.44
2023-03-27T22:32:25.824Z,98104.53
2023-03-27T22:34:52.870Z,98105.34
2023-03-27T22:37:20.999Z,98114.41
2023-03-27T22:39:47.898Z,98110.91
2023-03-27T22:42:14.871Z,98105.78
2023-03-27T22:44:41.931Z,98091.25
2023-03-27T22:47:09.315Z,98099.34
2023-03-27T22:49:39.044Z,98103.97
2023-03-27T22:52:06.369Z,98105.78
2023-03-27T22:54:33.413Z,98106.19
2023-03-27T22:57:00.387Z,98103.53
2023-03-27T22:59:27.342Z,98105.78
2023-03-27T23:01:54.464Z,98102.13
2023-03-27T23:04:21.624Z,98110.34
2023-03-27T23:06:48.937Z,98122.09
2023-03-27T23:09:16.003Z,98130.34
2023-03-27T23:11:44.078Z,98124.72
2023-03-27T23:14:11.718Z,98129.47
2023-03-27T23:16:38.871Z,98127.22
2023-03-27T23:19:06.185Z,98123.03
2023-03-27T23:21:33.167Z,98127.78
2023-03-27T23:24:00.076Z,98125.69
2023-03-27T23:26:27.763Z,98140.00
2023-03-27T23:28:54.723Z,98136.38
2023-03-27T23:31:21.717Z,98138.31
2023-03-27T23:33:50.939Z,98147.94
2023-03-27T23:36:21.638Z,98145.28
2023-03-27T23:38:49.377Z,98147.25
2023-03-27T23:41:16.700Z,98135.78
2023-03-27T23:43:44.026Z,98153.09
2023-03-27T23:46:12.894Z,98152.13
2023-03-27T23:48:42.172Z,98153.09
2023-03-27T23:51:12.772Z,98151.56
2023-03-27T23:53:39.877Z,98150.41
2023-03-27T23:56:07.136Z,98154.72
2023-03-27T23:58:34.192Z,98151.94
